Time;durP1;ratioP1;P1;durP2;ratioP2;P2;SDS_P1;SDS_P2;PMS_P1;PMS_P2;Temp;Humidity;BMP_temperature;BMP_pressure;BME280_temperature;BME280_humidity;BME280_pressure;Samples;Min_cycle;Max_cycle;Signal;HPM_P1;HPM_P2
2023/08/08 00:00:08;;;;;;;5.90;3.08;;;;;;;;;;4898745;29;20044;-60
2023/08/08 00:02:34;;;;;;;4.82;3.20;;;;;;;;;;4898628;29;20430;-59
2023/08/08 00:04:59;;;;;;;7.03;3.33;;;;;;;;;;4898263;29;20032;-60
2023/08/08 00:07:25;;;;;;;7.07;3.00;;;;;;;;;;4894227;29;20036;-60
2023/08/08 00:09:50;;;;;;;7.70;3.20;;;;;;;;;;4897258;29;20484;-60
2023/08/08 00:12:15;;;;;;;7.30;3.03;;;;;;;;;;4899520;29;20039;-60
2023/08/08 00:14:41;;;;;;;6.75;2.95;;;;;;;;;;4898245;29;20478;-60
2023/08/08 00:17:06;;;;;;;6.13;3.15;;;;;;;;;;4898181;29;20032;-60
2023/08/08 00:19:32;;;;;;;8.63;3.00;;;;;;;;;;4887153;29;20036;-60
2023/08/08 00:21:57;;;;;;;6.18;2.95;;;;;;;;;;4897797;29;20041;-60
2023/08/08 00:24:22;;;;;;;6.78;3.30;;;;;;;;;;4896832;29;20502;-60
2023/08/08 00:26:48;;;;;;;6.32;3.20;;;;;;;;;;4896559;29;20097;-60
2023/08/08 00:29:13;;;;;;;6.40;3.40;;;;;;;;;;4895845;29;20561;-60
2023/08/08 00:31:38;;;;;;;6.45;3.22;;;;;;;;;;4896635;29;20041;-60
2023/08/08 00:34:04;;;;;;;9.15;3.40;;;;;;;;;;4896412;29;20040;-60
2023/08/08 00:36:29;;;;;;;4.55;3.20;;;;;;;;;;4898874;29;20041;-60
2023/08/08 00:38:55;;;;;;;6.57;3.40;;;;;;;;;;4895163;29;20498;-60
2023/08/08 00:41:21;;;;;;;5.97;3.42;;;;;;;;;;4880791;29;20374;-60
2023/08/08 00:43:46;;;;;;;5.43;3.40;;;;;;;;;;4896283;29;20116;-59
2023/08/08 00:46:12;;;;;;;7.22;3.70;;;;;;;;;;4897437;29;20128;-61
2023/08/08 00:48:37;;;;;;;6.38;3.50;;;;;;;;;;4897547;29;20054;-61
2023/08/08 00:51:03;;;;;;;6.65;3.55;;;;;;;;;;4895542;29;20524;-61
2023/08/08 00:53:31;;;;;;;7.07;3.42;;;;;;;;;;4892777;29;20045;-60
2023/08/08 00:55:58;;;;;;;4.90;3.22;;;;;;;;;;4880272;29;20041;-60
2023/08/08 00:58:24;;;;;;;9.00;3.40;;;;;;;;;;4907949;29;20115;-60
2023/08/08 01:00:49;;;;;;;7.60;3.40;;;;;;;;;;4897822;29;20164;-60
2023/08/08 01:03:14;;;;;;;5.88;3.63;;;;;;;;;;4905812;29;20478;-60
2023/08/08 01:06:26;;;;;;;5.88;3.15;;;;;;;;;;4916547;29;20079;-60
2023/08/08 01:09:00;;;;;;;7.88;3.53;;;;;;;;;;4888046;29;20047;-61
2023/08/08 01:11:27;;;;;;;5.82;3.10;;;;;;;;;;4914809;29;20032;-60
2023/08/08 01:13:57;;;;;;;7.13;3.42;;;;;;;;;;4909926;29;20051;-60
2023/08/08 01:16:23;;;;;;;5.95;3.17;;;;;;;;;;4902733;29;20040;-61
2023/08/08 01:18:50;;;;;;;5.65;3.25;;;;;;;;;;4905188;29;20484;-60
2023/08/08 01:21:16;;;;;;;8.82;3.25;;;;;;;;;;4905378;29;20402;-60
2023/08/08 01:23:52;;;;;;;7.85;4.15;;;;;;;;;;4906143;29;20036;-60
2023/08/08 01:26:20;;;;;;;7.00;3.40;;;;;;;;;;4914964;29;20086;-60
2023/08/08 01:28:46;;;;;;;7.63;3.65;;;;;;;;;;4904506;29;20063;-61
2023/08/08 01:31:11;;;;;;;7.55;3.30;;;;;;;;;;4896797;29;20473;-61
2023/08/08 01:33:37;;;;;;;6.72;3.25;;;;;;;;;;4898111;29;20080;-61
2023/08/08 01:36:24;;;;;;;9.57;3.40;;;;;;;;;;4897519;29;20071;-60
2023/08/08 01:38:59;;;;;;;5.40;3.10;;;;;;;;;;4896759;29;20043;-61
2023/08/08 01:41:25;;;;;;;7.72;3.42;;;;;;;;;;4914235;29;20032;-61
2023/08/08 01:43:52;;;;;;;7.45;3.40;;;;;;;;;;4914948;29;20040;-61
2023/08/08 01:46:17;;;;;;;7.50;3.00;;;;;;;;;;4898617;29;20100;-60
2023/08/08 01:48:46;;;;;;;6.03;3.10;;;;;;;;;;4905519;29;20040;-60
2023/08/08 01:51:12;;;;;;;7.47;3.10;;;;;;;;;;4903733;29;20071;-60
2023/08/08 01:53:37;;;;;;;7.43;2.97;;;;;;;;;;4895933;29;20131;-60
2023/08/08 01:56:03;;;;;;;8.13;3.10;;;;;;;;;;4900783;29;20036;-59
2023/08/08 01:58:28;;;;;;;6.95;3.10;;;;;;;;;;4895639;29;20028;-59
2023/08/08 02:00:53;;;;;;;6.47;2.88;;;;;;;;;;4895095;29;20386;-60
2023/08/08 02:03:19;;;;;;;6.25;2.80;;;;;;;;;;4879429;29;20052;-60
2023/08/08 02:05:44;;;;;;;6.97;3.10;;;;;;;;;;4896349;29;20068;-60
2023/08/08 02:08:10;;;;;;;8.23;3.45;;;;;;;;;;4892795;29;20051;-60
2023/08/08 02:10:35;;;;;;;5.60;2.92;;;;;;;;;;4896804;29;20097;-59
2023/08/08 02:13:03;;;;;;;5.88;3.08;;;;;;;;;;4892673;29;20037;-60
2023/08/08 02:15:28;;;;;;;8.70;2.97;;;;;;;;;;4896557;29;20028;-59
2023/08/08 02:17:54;;;;;;;9.57;3.10;;;;;;;;;;4894091;29;20446;-60
2023/08/08 02:20:19;;;;;;;5.45;3.03;;;;;;;;;;4895838;29;20059;-60
2023/08/08 02:22:45;;;;;;;6.60;2.78;;;;;;;;;;4895583;29;20533;-60
2023/08/08 02:25:10;;;;;;;5.00;2.63;;;;;;;;;;4893245;29;20462;-59
2023/08/08 02:27:35;;;;;;;6.22;2.92;;;;;;;;;;4893555;29;20127;-62
2023/08/08 02:30:01;;;;;;;6.40;3.13;;;;;;;;;;4895459;29;20111;-61
2023/08/08 02:32:26;;;;;;;9.25;3.05;;;;;;;;;;4894295;29;20056;-59
2023/08/08 02:34:52;;;;;;;6.00;2.90;;;;;;;;;;4896205;29;20039;-59
2023/08/08 02:37:17;;;;;;;5.47;2.90;;;;;;;;;;4896568;29;20033;-61
2023/08/08 02:39:44;;;;;;;7.28;3.25;;;;;;;;;;4893249;29;20111;-60
2023/08/08 02:42:09;;;;;;;5.32;2.60;;;;;;;;;;4895161;29;20100;-60
2023/08/08 02:44:35;;;;;;;7.15;3.00;;;;;;;;;;4893208;29;20037;-61
2023/08/08 02:47:00;;;;;;;5.63;2.92;;;;;;;;;;4901872;29;20036;-61
2023/08/08 02:49:26;;;;;;;8.93;3.10;;;;;;;;;;4896558;29;20505;-60
2023/08/08 02:51:51;;;;;;;7.45;3.13;;;;;;;;;;4894199;29;20047;-61
2023/08/08 02:54:16;;;;;;;7.00;3.00;;;;;;;;;;4894665;29;20123;-60
2023/08/08 02:56:42;;;;;;;7.85;3.10;;;;;;;;;;4882160;29;20059;-60
2023/08/08 02:59:07;;;;;;;7.80;3.20;;;;;;;;;;4898171;29;20466;-60
2023/08/08 03:01:33;;;;;;;6.72;3.10;;;;;;;;;;4895919;29;20031;-60
2023/08/08 03:03:59;;;;;;;6.57;3.10;;;;;;;;;;4882686;29;20075;-60
2023/08/08 03:06:25;;;;;;;9.77;3.08;;;;;;;;;;4912655;29;20462;-59
2023/08/08 03:08:50;;;;;;;9.18;3.13;;;;;;;;;;4900847;29;20056;-60
2023/08/08 03:11:16;;;;;;;8.82;3.35;;;;;;;;;;4892801;29;20062;-60
2023/08/08 03:13:41;;;;;;;7.90;3.30;;;;;;;;;;4894061;29;20068;-60
2023/08/08 03:16:06;;;;;;;6.72;3.28;;;;;;;;;;4900005;29;20088;-60
2023/08/08 03:18:32;;;;;;;7.78;3.75;;;;;;;;;;4909472;29;20036;-60
2023/08/08 03:20:57;;;;;;;8.10;3.50;;;;;;;;;;4893486;29;20032;-60
2023/08/08 03:23:23;;;;;;;7.45;4.03;;;;;;;;;;4919224;29;20062;-56
2023/08/08 03:25:52;;;;;;;11.13;4.72;;;;;;;;;;4906494;29;20040;-57
2023/08/08 03:28:18;;;;;;;7.78;4.47;;;;;;;;;;4890175;29;20028;-57
2023/08/08 03:30:43;;;;;;;9.50;4.95;;;;;;;;;;4902367;29;20481;-59
2023/08/08 03:33:11;;;;;;;10.80;5.13;;;;;;;;;;4894146;29;20071;-59
2023/08/08 03:35:37;;;;;;;15.10;5.88;;;;;;;;;;4907917;29;20063;-59
2023/08/08 03:38:02;;;;;;;16.83;6.50;;;;;;;;;;4904106;29;20060;-59
2023/08/08 03:40:28;;;;;;;11.50;6.05;;;;;;;;;;4893185;29;20497;-59
2023/08/08 03:42:53;;;;;;;11.20;5.82;;;;;;;;;;4897662;29;20397;-59
2023/08/08 03:45:18;;;;;;;14.65;6.47;;;;;;;;;;4901022;29;20048;-60
2023/08/08 03:47:44;;;;;;;18.95;6.10;;;;;;;;;;4911740;29;20379;-59
2023/08/08 03:50:11;;;;;;;14.93;6.50;;;;;;;;;;4907770;29;20098;-59
2023/08/08 03:52:39;;;;;;;11.23;5.90;;;;;;;;;;4898908;29;20037;-59
2023/08/08 03:55:05;;;;;;;14.43;6.50;;;;;;;;;;4912899;29;20051;-59
2023/08/08 03:57:31;;;;;;;12.68;6.20;;;;;;;;;;4909483;29;20045;-59
2023/08/08 03:59:56;;;;;;;11.82;6.60;;;;;;;;;;4898011;29;20052;-60
2023/08/08 04:02:22;;;;;;;14.27;6.60;;;;;;;;;;4915458;29;20036;-60
2023/08/08 04:04:47;;;;;;;15.50;6.43;;;;;;;;;;4918960;29;20176;-59
2023/08/08 04:07:13;;;;;;;13.63;6.25;;;;;;;;;;4898392;29;20035;-60
2023/08/08 04:09:38;;;;;;;12.13;6.35;;;;;;;;;;4916153;29;20055;-60
2023/08/08 04:12:04;;;;;;;14.32;6.82;;;;;;;;;;4912852;29;20525;-60
2023/08/08 04:14:29;;;;;;;14.23;6.70;;;;;;;;;;4901161;29;20878;-59
2023/08/08 04:16:55;;;;;;;12.57;6.80;;;;;;;;;;4912061;29;20036;-60
2023/08/08 04:19:20;;;;;;;16.58;6.88;;;;;;;;;;4896166;29;20028;-60
2023/08/08 04:21:45;;;;;;;16.67;7.30;;;;;;;;;;4898967;29;20383;-60
2023/08/08 04:24:12;;;;;;;15.73;7.70;;;;;;;;;;4915626;29;20169;-60
2023/08/08 04:26:37;;;;;;;18.55;7.15;;;;;;;;;;4915682;29;20495;-60
2023/08/08 04:29:03;;;;;;;13.85;7.00;;;;;;;;;;4912165;29;20044;-60
2023/08/08 04:31:28;;;;;;;13.55;7.13;;;;;;;;;;4903908;29;20041;-60
2023/08/08 04:33:59;;;;;;;19.67;7.55;;;;;;;;;;4899298;29;20315;-60
2023/08/08 04:36:25;;;;;;;16.75;7.22;;;;;;;;;;4912613;29;20044;-60
2023/08/08 04:38:53;;;;;;;14.88;8.13;;;;;;;;;;4907413;29;20446;-60
2023/08/08 04:41:19;;;;;;;16.60;7.65;;;;;;;;;;4915245;29;20207;-60
2023/08/08 04:43:44;;;;;;;16.52;7.50;;;;;;;;;;4896451;29;20535;-60
2023/08/08 04:46:10;;;;;;;15.13;7.38;;;;;;;;;;4893415;29;20033;-61
2023/08/08 04:48:37;;;;;;;19.05;8.38;;;;;;;;;;4902004;29;20036;-61
2023/08/08 04:51:06;;;;;;;15.73;7.85;;;;;;;;;;4904412;29;20036;-60
2023/08/08 04:53:32;;;;;;;17.95;8.50;;;;;;;;;;4892410;29;20401;-60
2023/08/08 04:55:58;;;;;;;19.30;8.02;;;;;;;;;;4915048;29;20040;-60
2023/08/08 04:58:23;;;;;;;15.38;8.55;;;;;;;;;;4895312;29;20140;-60
2023/08/08 05:00:50;;;;;;;16.75;8.25;;;;;;;;;;4904164;29;20040;-60
2023/08/08 05:03:16;;;;;;;19.08;9.00;;;;;;;;;;4881003;29;20485;-60
2023/08/08 05:05:44;;;;;;;17.05;8.88;;;;;;;;;;4898811;29;20036;-61
2023/08/08 05:08:10;;;;;;;18.05;9.20;;;;;;;;;;4894948;29;20029;-61
2023/08/08 05:10:35;;;;;;;16.42;8.80;;;;;;;;;;4896796;29;20359;-61
2023/08/08 05:13:01;;;;;;;21.08;9.65;;;;;;;;;;4898311;29;20044;-61
2023/08/08 05:15:26;;;;;;;19.83;10.10;;;;;;;;;;4898559;29;20038;-61
2023/08/08 05:17:54;;;;;;;19.67;9.40;;;;;;;;;;4897815;29;20105;-61
2023/08/08 05:20:19;;;;;;;19.75;10.32;;;;;;;;;;4897660;29;20084;-61
2023/08/08 05:22:47;;;;;;;24.30;10.20;;;;;;;;;;4896083;29;20059;-66
2023/08/08 05:25:13;;;;;;;18.67;10.88;;;;;;;;;;4893669;29;20044;-62
2023/08/08 05:27:38;;;;;;;18.70;10.75;;;;;;;;;;4897803;29;20116;-62
2023/08/08 05:30:04;;;;;;;19.70;10.52;;;;;;;;;;4897952;29;20121;-63
2023/08/08 05:32:30;;;;;;;23.83;11.15;;;;;;;;;;4897308;29;20533;-61
2023/08/08 05:34:57;;;;;;;19.10;10.75;;;;;;;;;;4877917;29;21910;-64
2023/08/08 05:37:23;;;;;;;24.60;11.73;;;;;;;;;;4894738;29;20100;-62
2023/08/08 05:39:49;;;;;;;20.15;12.52;;;;;;;;;;4911136;29;20039;-61
2023/08/08 05:42:14;;;;;;;22.25;12.55;;;;;;;;;;4916506;29;20036;-63
2023/08/08 05:44:41;;;;;;;25.52;13.50;;;;;;;;;;4907026;29;20040;-63
2023/08/08 05:47:07;;;;;;;26.25;14.23;;;;;;;;;;4895057;29;20044;-63
2023/08/08 05:49:32;;;;;;;22.55;14.02;;;;;;;;;;4897904;29;20095;-63
2023/08/08 05:51:58;;;;;;;25.73;14.13;;;;;;;;;;4897893;29;20056;-63
2023/08/08 05:54:23;;;;;;;25.48;15.10;;;;;;;;;;4895553;29;20363;-62
2023/08/08 05:56:48;;;;;;;25.67;14.23;;;;;;;;;;4896811;29;20087;-62
2023/08/08 05:59:14;;;;;;;25.33;15.13;;;;;;;;;;4896739;29;20742;-63
2023/08/08 06:01:39;;;;;;;27.30;14.25;;;;;;;;;;4896619;29;20032;-64
2023/08/08 06:04:05;;;;;;;22.35;13.13;;;;;;;;;;4899286;29;20028;-64
2023/08/08 06:06:30;;;;;;;26.95;14.75;;;;;;;;;;4903114;29;20033;-62
2023/08/08 06:08:56;;;;;;;27.67;15.10;;;;;;;;;;4897394;29;20203;-62
2023/08/08 06:11:21;;;;;;;25.83;14.30;;;;;;;;;;4896808;29;20526;-63
2023/08/08 06:13:48;;;;;;;26.17;14.63;;;;;;;;;;4880703;29;20044;-63
2023/08/08 06:16:15;;;;;;;26.80;15.18;;;;;;;;;;4896689;29;20036;-61
2023/08/08 06:18:44;;;;;;;28.80;15.50;;;;;;;;;;4897605;29;20063;-63
2023/08/08 06:21:09;;;;;;;31.20;16.75;;;;;;;;;;4894208;29;20106;-63
2023/08/08 06:23:35;;;;;;;26.73;15.80;;;;;;;;;;4897040;29;20054;-62
2023/08/08 06:26:00;;;;;;;27.80;16.23;;;;;;;;;;4897000;29;20036;-62
2023/08/08 06:28:25;;;;;;;28.75;14.57;;;;;;;;;;4896599;29;20029;-60
2023/08/08 06:30:51;;;;;;;32.03;18.08;;;;;;;;;;4895489;29;20066;-62
2023/08/08 06:33:16;;;;;;;33.15;18.05;;;;;;;;;;4896107;29;20036;-61
2023/08/08 06:35:42;;;;;;;32.00;19.10;;;;;;;;;;4880398;29;20060;-63
2023/08/08 06:38:08;;;;;;;36.60;19.13;;;;;;;;;;4893261;29;20048;-64
2023/08/08 06:40:34;;;;;;;38.22;21.80;;;;;;;;;;4871579;29;20036;-63
2023/08/08 06:42:59;;;;;;;42.22;21.65;;;;;;;;;;4896708;29;20363;-63
2023/08/08 06:45:24;;;;;;;32.78;19.63;;;;;;;;;;4893245;29;20064;-63
2023/08/08 06:47:50;;;;;;;38.67;20.63;;;;;;;;;;4897131;29;20052;-61
2023/08/08 06:50:16;;;;;;;29.67;19.08;;;;;;;;;;4895176;29;20040;-61
2023/08/08 06:52:42;;;;;;;37.17;18.33;;;;;;;;;;4894702;29;20043;-61
2023/08/08 06:55:08;;;;;;;33.17;19.95;;;;;;;;;;4878534;29;20063;-64
2023/08/08 06:57:34;;;;;;;37.60;20.13;;;;;;;;;;4896650;29;20495;-65
2023/08/08 07:00:00;;;;;;;34.65;21.10;;;;;;;;;;4895976;29;20485;-64
2023/08/08 07:02:25;;;;;;;35.17;20.05;;;;;;;;;;4895967;29;20040;-63
2023/08/08 07:04:51;;;;;;;32.25;21.20;;;;;;;;;;4894591;29;20045;-63
2023/08/08 07:07:17;;;;;;;34.70;20.60;;;;;;;;;;4878922;29;20048;-63
2023/08/08 07:09:43;;;;;;;33.20;19.52;;;;;;;;;;4896553;29;20474;-62
2023/08/08 07:12:08;;;;;;;31.00;19.08;;;;;;;;;;4895914;29;20033;-64
2023/08/08 07:14:34;;;;;;;32.28;20.67;;;;;;;;;;4896767;29;20041;-64
2023/08/08 07:16:59;;;;;;;30.50;19.88;;;;;;;;;;4896391;29;20450;-61
2023/08/08 07:19:25;;;;;;;29.67;17.88;;;;;;;;;;4893651;29;20117;-62
2023/08/08 07:21:50;;;;;;;27.77;18.20;;;;;;;;;;4896712;29;20024;-63
2023/08/08 07:24:16;;;;;;;28.42;18.33;;;;;;;;;;4894719;29;20036;-64
2023/08/08 07:26:42;;;;;;;29.92;18.95;;;;;;;;;;4895412;29;20036;-64
2023/08/08 07:29:07;;;;;;;26.10;15.35;;;;;;;;;;4878996;29;20550;-64
2023/08/08 07:31:33;;;;;;;30.42;16.77;;;;;;;;;;4894514;29;20032;-61
2023/08/08 07:33:58;;;;;;;27.23;17.48;;;;;;;;;;4895033;29;20036;-63
2023/08/08 07:36:23;;;;;;;28.27;16.65;;;;;;;;;;4891326;29;20032;-64
2023/08/08 07:38:49;;;;;;;27.67;16.77;;;;;;;;;;4896366;29;20080;-63
2023/08/08 07:41:15;;;;;;;26.88;15.63;;;;;;;;;;4894452;29;20036;-62
2023/08/08 07:43:40;;;;;;;23.85;15.25;;;;;;;;;;4893226;29;20079;-64
2023/08/08 07:46:06;;;;;;;23.63;14.40;;;;;;;;;;4894346;29;20107;-64
2023/08/08 07:48:31;;;;;;;19.05;13.60;;;;;;;;;;4896604;29;20119;-64
2023/08/08 07:50:57;;;;;;;19.63;12.02;;;;;;;;;;4896306;29;20079;-63
2023/08/08 07:53:22;;;;;;;21.60;13.15;;;;;;;;;;4895579;29;20894;-62
2023/08/08 07:55:48;;;;;;;20.48;12.18;;;;;;;;;;4879303;29;20486;-62
2023/08/08 07:58:14;;;;;;;22.67;11.82;;;;;;;;;;4892742;29;20049;-61
2023/08/08 08:00:39;;;;;;;18.42;11.05;;;;;;;;;;4892572;29;20040;-63
2023/08/08 08:03:04;;;;;;;20.15;10.57;;;;;;;;;;4897894;29;20477;-64
2023/08/08 08:05:30;;;;;;;19.23;10.18;;;;;;;;;;4899464;29;20115;-64
2023/08/08 08:07:55;;;;;;;16.27;9.52;;;;;;;;;;4899572;29;20055;-63
2023/08/08 08:10:21;;;;;;;13.23;7.20;;;;;;;;;;4898780;29;20064;-63
2023/08/08 08:12:46;;;;;;;15.10;8.55;;;;;;;;;;4898708;29;20123;-63
2023/08/08 08:15:13;;;;;;;15.77;7.95;;;;;;;;;;4894409;29;20037;-66
2023/08/08 08:17:39;;;;;;;15.75;7.07;;;;;;;;;;4897825;29;20454;-63
2023/08/08 08:20:10;;;;;;;12.77;6.80;;;;;;;;;;4898445;29;20036;-64
2023/08/08 08:22:37;;;;;;;16.13;7.13;;;;;;;;;;4897797;29;20032;-62
2023/08/08 08:25:03;;;;;;;13.73;6.28;;;;;;;;;;4896480;29;20032;-64
2023/08/08 08:27:28;;;;;;;11.38;5.60;;;;;;;;;;4898831;29;20042;-64
2023/08/08 08:29:54;;;;;;;9.48;5.50;;;;;;;;;;4899411;29;20401;-64
2023/08/08 08:32:19;;;;;;;9.88;5.43;;;;;;;;;;4898753;29;20037;-62
2023/08/08 08:34:45;;;;;;;14.73;6.38;;;;;;;;;;4898485;29;20542;-64
2023/08/08 08:37:11;;;;;;;13.43;6.07;;;;;;;;;;4898144;29;20031;-65
2023/08/08 08:39:36;;;;;;;11.00;5.82;;;;;;;;;;4899305;29;20111;-63
2023/08/08 08:42:04;;;;;;;13.57;6.00;;;;;;;;;;4895879;29;20071;-65
2023/08/08 08:44:31;;;;;;;14.90;5.65;;;;;;;;;;4897315;29;20039;-64
2023/08/08 08:47:01;;;;;;;10.43;5.28;;;;;;;;;;4898790;29;20037;-65
2023/08/08 08:49:30;;;;;;;11.20;4.45;;;;;;;;;;4895984;29;20049;-65
2023/08/08 08:52:00;;;;;;;8.55;3.25;;;;;;;;;;4898916;29;20028;-63
2023/08/08 08:54:28;;;;;;;5.53;2.72;;;;;;;;;;4898172;29;20192;-63
2023/08/08 08:56:54;;;;;;;5.53;3.05;;;;;;;;;;4896364;29;20478;-64
2023/08/08 08:59:19;;;;;;;6.70;2.90;;;;;;;;;;4896256;29;20123;-64
2023/08/08 09:01:45;;;;;;;6.05;2.72;;;;;;;;;;4873398;29;20062;-63
2023/08/08 09:04:11;;;;;;;5.82;2.88;;;;;;;;;;4897076;29;20033;-64
2023/08/08 09:06:38;;;;;;;5.25;2.63;;;;;;;;;;4896945;29;20445;-64
2023/08/08 09:09:04;;;;;;;8.20;3.00;;;;;;;;;;4896878;29;20474;-64
2023/08/08 09:11:31;;;;;;;5.47;2.50;;;;;;;;;;4894882;29;20043;-65
2023/08/08 09:13:56;;;;;;;5.40;2.58;;;;;;;;;;4896266;29;20036;-64
2023/08/08 09:16:24;;;;;;;8.20;2.65;;;;;;;;;;4897620;29;20044;-64
2023/08/08 09:18:51;;;;;;;7.07;2.97;;;;;;;;;;4898512;29;20088;-66
2023/08/08 09:21:18;;;;;;;5.97;2.30;;;;;;;;;;4896521;29;20040;-64
2023/08/08 09:23:44;;;;;;;6.03;2.33;;;;;;;;;;4898425;29;20068;-63
2023/08/08 09:26:10;;;;;;;9.85;2.45;;;;;;;;;;4895468;29;20433;-63
2023/08/08 09:28:35;;;;;;;6.30;2.60;;;;;;;;;;4898337;29;20036;-66
2023/08/08 09:31:01;;;;;;;6.65;2.58;;;;;;;;;;4898120;29;20120;-63
2023/08/08 09:33:29;;;;;;;6.13;2.40;;;;;;;;;;4896339;29;20406;-64
2023/08/08 09:35:55;;;;;;;4.97;2.30;;;;;;;;;;4895114;29;20111;-63
2023/08/08 09:38:20;;;;;;;5.72;2.35;;;;;;;;;;4897165;29;20112;-63
2023/08/08 09:40:46;;;;;;;6.47;2.50;;;;;;;;;;4893275;29;20367;-64
2023/08/08 09:43:12;;;;;;;5.18;2.30;;;;;;;;;;4894961;29;20028;-62
2023/08/08 09:45:39;;;;;;;8.00;2.40;;;;;;;;;;4897999;29;20389;-63
2023/08/08 09:48:06;;;;;;;7.13;2.42;;;;;;;;;;4897656;29;20037;-65
2023/08/08 09:50:33;;;;;;;5.82;2.35;;;;;;;;;;4896959;29;20541;-62
2023/08/08 09:52:58;;;;;;;5.43;2.20;;;;;;;;;;4897763;29;20354;-64
2023/08/08 09:55:28;;;;;;;5.20;2.30;;;;;;;;;;4894068;29;20041;-64
2023/08/08 09:57:53;;;;;;;5.22;2.30;;;;;;;;;;4897926;29;20482;-64
2023/08/08 10:00:20;;;;;;;4.78;2.20;;;;;;;;;;4896645;29;20040;-64
2023/08/08 10:02:46;;;;;;;5.60;2.60;;;;;;;;;;4897650;29;20029;-63
2023/08/08 10:05:14;;;;;;;7.45;2.40;;;;;;;;;;4895510;29;20039;-64
2023/08/08 10:07:40;;;;;;;6.15;2.40;;;;;;;;;;4896187;29;20032;-63
2023/08/08 10:10:10;;;;;;;6.47;2.40;;;;;;;;;;4894360;29;20040;-63
2023/08/08 10:12:39;;;;;;;9.27;2.58;;;;;;;;;;4897501;29;20474;-63
2023/08/08 10:15:10;;;;;;;7.40;2.92;;;;;;;;;;4897681;29;20494;-63
2023/08/08 10:17:39;;;;;;;7.93;2.97;;;;;;;;;;4896891;29;20032;-64
2023/08/08 10:20:11;;;;;;;10.63;2.72;;;;;;;;;;4880029;29;20462;-63
2023/08/08 10:22:47;;;;;;;5.93;2.72;;;;;;;;;;4896830;29;20033;-65
2023/08/08 10:25:23;;;;;;;8.10;2.85;;;;;;;;;;4896514;29;20028;-63
2023/08/08 10:27:49;;;;;;;9.77;3.00;;;;;;;;;;4909133;29;20122;-62
2023/08/08 10:30:15;;;;;;;7.63;3.00;;;;;;;;;;4915196;29;20124;-62
2023/08/08 10:32:43;;;;;;;4.25;2.47;;;;;;;;;;4884281;29;20484;-61
2023/08/08 10:35:10;;;;;;;8.63;3.03;;;;;;;;;;4882795;29;20474;-63
2023/08/08 10:37:37;;;;;;;7.50;3.08;;;;;;;;;;4896746;29;20032;-64
2023/08/08 10:40:07;;;;;;;6.15;3.10;;;;;;;;;;4897164;29;20029;-62
2023/08/08 10:42:40;;;;;;;9.35;3.30;;;;;;;;;;4893744;29;20115;-63
2023/08/08 10:45:09;;;;;;;9.23;3.03;;;;;;;;;;4897384;29;20032;-63
2023/08/08 10:47:35;;;;;;;7.43;3.22;;;;;;;;;;4893989;29;20043;-63
2023/08/08 10:50:07;;;;;;;6.43;3.08;;;;;;;;;;4896925;29;20032;-65
2023/08/08 10:52:55;;;;;;;7.50;3.25;;;;;;;;;;4896114;29;20044;-64
2023/08/08 10:55:31;;;;;;;9.55;3.33;;;;;;;;;;4896193;29;20047;-63
2023/08/08 10:58:03;;;;;;;6.95;3.13;;;;;;;;;;4894812;29;20076;-62
2023/08/08 11:00:31;;;;;;;5.85;3.03;;;;;;;;;;4896091;29;20033;-63
2023/08/08 11:02:58;;;;;;;5.40;3.20;;;;;;;;;;4890087;29;20080;-63
2023/08/08 11:05:24;;;;;;;5.50;3.25;;;;;;;;;;4894260;29;20032;-64
2023/08/08 11:07:50;;;;;;;7.60;3.38;;;;;;;;;;4894235;29;20385;-64
2023/08/08 11:10:16;;;;;;;9.55;3.30;;;;;;;;;;4892867;29;20025;-64
2023/08/08 11:12:42;;;;;;;4.82;3.17;;;;;;;;;;4896876;29;20526;-64
2023/08/08 11:15:08;;;;;;;8.60;3.53;;;;;;;;;;4895737;29;20112;-64
2023/08/08 11:17:34;;;;;;;6.97;3.42;;;;;;;;;;4895210;29;20033;-63
2023/08/08 11:20:01;;;;;;;7.70;3.10;;;;;;;;;;4894967;29;20033;-62
2023/08/08 11:22:26;;;;;;;7.38;2.70;;;;;;;;;;4914284;29;20032;-62
2023/08/08 11:24:52;;;;;;;7.22;3.22;;;;;;;;;;4905310;29;20039;-62
2023/08/08 11:27:17;;;;;;;8.48;3.60;;;;;;;;;;4878885;29;20400;-65
2023/08/08 11:29:50;;;;;;;6.25;2.85;;;;;;;;;;4894651;29;20081;-64
2023/08/08 11:32:16;;;;;;;6.30;2.80;;;;;;;;;;4876681;29;20382;-64
2023/08/08 11:34:41;;;;;;;6.70;2.90;;;;;;;;;;4894198;29;20032;-63
2023/08/08 11:37:08;;;;;;;6.47;3.03;;;;;;;;;;4896390;29;20035;-65
2023/08/08 11:39:34;;;;;;;10.90;3.85;;;;;;;;;;4899445;29;20594;-65
2023/08/08 11:42:00;;;;;;;4.97;3.00;;;;;;;;;;4898497;29;20163;-63
2023/08/08 11:44:25;;;;;;;5.88;2.90;;;;;;;;;;4899179;29;20039;-64
2023/08/08 11:46:51;;;;;;;9.75;2.92;;;;;;;;;;4900121;29;20037;-65
2023/08/08 11:49:17;;;;;;;6.00;2.70;;;;;;;;;;4896980;29;20033;-64
2023/08/08 11:51:45;;;;;;;6.22;2.67;;;;;;;;;;4879642;29;20139;-64
2023/08/08 11:54:11;;;;;;;5.50;2.58;;;;;;;;;;4900009;29;20485;-66
2023/08/08 11:56:37;;;;;;;6.80;2.33;;;;;;;;;;4897224;29;20052;-64
2023/08/08 11:59:04;;;;;;;4.53;2.22;;;;;;;;;;4897355;29;20043;-65
2023/08/08 12:01:31;;;;;;;5.05;2.55;;;;;;;;;;4899123;29;20177;-65
2023/08/08 12:03:57;;;;;;;5.32;2.30;;;;;;;;;;4897534;29;20032;-65
2023/08/08 12:06:28;;;;;;;5.80;2.50;;;;;;;;;;4898717;29;20040;-63
2023/08/08 12:08:54;;;;;;;6.13;2.63;;;;;;;;;;4899708;29;20044;-64
2023/08/08 12:11:20;;;;;;;5.30;2.47;;;;;;;;;;4897386;29;20049;-65
2023/08/08 12:13:45;;;;;;;5.60;2.38;;;;;;;;;;4899296;29;20547;-64
2023/08/08 12:16:13;;;;;;;6.03;2.47;;;;;;;;;;4899289;29;20039;-63
2023/08/08 12:18:40;;;;;;;4.50;2.30;;;;;;;;;;4898910;29;20073;-65
2023/08/08 12:21:06;;;;;;;5.32;2.20;;;;;;;;;;4882637;29;20024;-64
2023/08/08 12:23:32;;;;;;;4.82;2.30;;;;;;;;;;4880833;29;20120;-63
2023/08/08 12:25:59;;;;;;;3.75;2.00;;;;;;;;;;4898932;29;20109;-64
2023/08/08 12:28:24;;;;;;;5.88;2.28;;;;;;;;;;4881768;29;20486;-63
2023/08/08 12:30:50;;;;;;;5.97;2.40;;;;;;;;;;4899188;29;20135;-63
2023/08/08 12:33:15;;;;;;;4.35;2.20;;;;;;;;;;4881268;29;20127;-61
2023/08/08 12:35:41;;;;;;;8.23;2.50;;;;;;;;;;4899016;29;20032;-64
2023/08/08 12:38:07;;;;;;;4.25;2.20;;;;;;;;;;4899431;29;20035;-65
2023/08/08 12:40:33;;;;;;;7.10;2.20;;;;;;;;;;4892999;29;20112;-62
2023/08/08 12:42:59;;;;;;;4.45;2.20;;;;;;;;;;4898957;29;20032;-63
2023/08/08 12:45:24;;;;;;;4.82;2.40;;;;;;;;;;4896300;29;20115;-63
2023/08/08 12:47:50;;;;;;;3.10;2.10;;;;;;;;;;4870766;29;20497;-64
2023/08/08 12:50:15;;;;;;;5.55;2.30;;;;;;;;;;4891956;29;20106;-64
2023/08/08 12:52:41;;;;;;;5.45;2.30;;;;;;;;;;4895379;29;20151;-63
2023/08/08 12:55:14;;;;;;;3.97;2.05;;;;;;;;;;4897447;29;20438;-63
2023/08/08 12:57:40;;;;;;;3.22;2.20;;;;;;;;;;4907572;29;20117;-63
2023/08/08 13:00:08;;;;;;;5.65;2.30;;;;;;;;;;4917910;29;20036;-62
2023/08/08 13:02:34;;;;;;;4.10;2.10;;;;;;;;;;4901494;29;20036;-61
2023/08/08 13:04:59;;;;;;;5.50;2.08;;;;;;;;;;4896989;29;20040;-62
2023/08/08 13:07:25;;;;;;;4.65;1.90;;;;;;;;;;4897285;29;20479;-62
2023/08/08 13:09:51;;;;;;;3.90;1.83;;;;;;;;;;4898658;29;20031;-63
2023/08/08 13:12:16;;;;;;;4.22;2.15;;;;;;;;;;4880908;29;20044;-63
2023/08/08 13:14:47;;;;;;;4.00;2.05;;;;;;;;;;4899956;29;20486;-65
2023/08/08 13:17:13;;;;;;;4.95;2.22;;;;;;;;;;4881637;29;20048;-67
2023/08/08 13:19:39;;;;;;;3.55;2.10;;;;;;;;;;4897039;29;20032;-68
2023/08/08 13:22:05;;;;;;;3.53;2.25;;;;;;;;;;4897013;29;20060;-68
2023/08/08 13:24:30;;;;;;;5.75;2.70;;;;;;;;;;4894196;29;20028;-69
2023/08/08 13:26:56;;;;;;;4.97;2.33;;;;;;;;;;4881513;29;20040;-68
2023/08/08 13:29:21;;;;;;;6.25;2.60;;;;;;;;;;4895547;29;20050;-68
2023/08/08 13:31:47;;;;;;;10.40;3.30;;;;;;;;;;4881336;29;20198;-67
2023/08/08 13:34:12;;;;;;;5.13;2.50;;;;;;;;;;4880739;29;20044;-69
2023/08/08 13:36:37;;;;;;;4.22;2.50;;;;;;;;;;4897201;29;20233;-69
2023/08/08 13:39:04;;;;;;;5.82;2.55;;;;;;;;;;4892564;29;20032;-67
2023/08/08 13:41:29;;;;;;;5.40;2.53;;;;;;;;;;4896784;29;20084;-68
2023/08/08 13:43:55;;;;;;;3.67;2.40;;;;;;;;;;4881226;29;20422;-64
2023/08/08 13:46:21;;;;;;;5.20;2.30;;;;;;;;;;4893628;29;20123;-64
2023/08/08 13:48:46;;;;;;;6.00;2.28;;;;;;;;;;4898060;29;20037;-65
2023/08/08 13:51:11;;;;;;;7.63;2.50;;;;;;;;;;4897925;29;20092;-63
2023/08/08 13:53:37;;;;;;;4.85;2.30;;;;;;;;;;4896981;29;20672;-66
2023/08/08 13:56:02;;;;;;;3.92;2.40;;;;;;;;;;4897545;29;20169;-66
2023/08/08 13:58:28;;;;;;;4.38;2.40;;;;;;;;;;4878374;29;20060;-65
2023/08/08 14:00:56;;;;;;;4.30;2.40;;;;;;;;;;4894183;29;20398;-64
2023/08/08 14:03:21;;;;;;;4.80;2.60;;;;;;;;;;4896440;29;20511;-65
2023/08/08 14:05:46;;;;;;;4.53;2.22;;;;;;;;;;4897702;29;20067;-64
2023/08/08 14:08:12;;;;;;;4.82;2.53;;;;;;;;;;4896798;29;20111;-65
2023/08/08 14:10:37;;;;;;;5.88;2.38;;;;;;;;;;4894339;29;20185;-63
2023/08/08 14:13:03;;;;;;;5.40;2.50;;;;;;;;;;4897299;29;20080;-61
2023/08/08 14:15:29;;;;;;;5.78;2.40;;;;;;;;;;4896531;29;20040;-63
2023/08/08 14:17:55;;;;;;;7.82;2.60;;;;;;;;;;4894979;29;20063;-64
2023/08/08 14:20:20;;;;;;;7.75;2.50;;;;;;;;;;4895101;29;20458;-62
2023/08/08 14:22:49;;;;;;;5.80;2.50;;;;;;;;;;4896680;29;20541;-66
2023/08/08 14:25:15;;;;;;;4.13;2.40;;;;;;;;;;4894933;29;20052;-64
2023/08/08 14:27:40;;;;;;;5.53;2.65;;;;;;;;;;4876045;29;20032;-63
2023/08/08 14:30:06;;;;;;;5.65;2.67;;;;;;;;;;4896088;29;20033;-62